createdAt,value
2023-05-16T00:00:48.861Z,24.67
2023-05-16T00:02:51.455Z,24.67
2023-05-16T00:04:53.229Z,24.67
2023-05-16T00:06:55.040Z,24.68
2023-05-16T00:08:56.428Z,24.69
2023-05-16T00:10:57.901Z,24.69
2023-05-16T00:13:00.264Z,24.68
2023-05-16T00:15:01.901Z,24.67
2023-05-16T00:17:04.958Z,24.66
2023-05-16T00:19:06.719Z,24.66
2023-05-16T00:21:08.289Z,24.66
2023-05-16T00:23:09.765Z,24.66
2023-05-16T00:25:11.357Z,24.67
2023-05-16T00:27:12.793Z,24.67
2023-05-16T00:29:14.592Z,24.49
2023-05-16T00:31:16.161Z,24.68
2023-05-16T00:33:17.740Z,24.68
2023-05-16T00:35:19.253Z,24.68
2023-05-16T00:37:20.903Z,24.69
2023-05-16T00:39:22.382Z,24.68
2023-05-16T00:41:23.953Z,24.58
2023-05-16T00:43:25.796Z,24.67
2023-05-16T00:45:27.539Z,24.67
2023-05-16T00:47:29.284Z,24.67
2023-05-16T00:49:30.874Z,24.66
2023-05-16T00:51:32.490Z,24.67
2023-05-16T00:53:33.960Z,24.69
2023-05-16T00:55:35.799Z,24.69
2023-05-16T00:57:37.830Z,24.69
2023-05-16T00:59:40.220Z,24.70
2023-05-16T01:01:42.001Z,24.69
2023-05-16T01:03:47.094Z,24.68
2023-05-16T01:05:49.816Z,24.68
2023-05-16T01:07:51.300Z,24.67
2023-05-16T01:09:53.484Z,24.66
2023-05-16T01:12:07.343Z,24.66
2023-05-16T01:14:11.821Z,24.66
2023-05-16T01:16:26.378Z,24.66
2023-05-16T01:18:28.191Z,24.67
2023-05-16T01:20:48.341Z,24.67
2023-05-16T01:23:03.893Z,24.67
2023-05-16T01:25:11.137Z,24.68
2023-05-16T01:27:13.853Z,24.68
2023-05-16T01:29:15.721Z,24.68
2023-05-16T01:31:17.353Z,24.66
2023-05-16T01:33:18.889Z,24.65
2023-05-16T01:35:20.747Z,24.65
2023-05-16T01:37:30.876Z,24.64
2023-05-16T01:39:44.198Z,24.66
2023-05-16T01:41:51.484Z,24.66
2023-05-16T01:43:57.523Z,24.68
2023-05-16T01:46:01.773Z,24.68
2023-05-16T01:48:13.286Z,24.69
2023-05-16T01:50:15.790Z,24.69
2023-05-16T01:52:27.619Z,24.67
2023-05-16T01:54:31.370Z,24.67
2023-05-16T01:56:33.504Z,24.67
2023-05-16T01:58:36.835Z,24.65
2023-05-16T02:00:38.440Z,24.64
2023-05-16T02:02:40.513Z,24.64
2023-05-16T02:04:41.975Z,24.65
2023-05-16T02:06:43.794Z,24.66
2023-05-16T02:08:45.231Z,24.65
2023-05-16T02:10:46.701Z,24.66
2023-05-16T02:12:48.100Z,24.67
2023-05-16T02:14:49.483Z,24.68
2023-05-16T02:16:51.002Z,24.68
2023-05-16T02:18:52.866Z,24.67
2023-05-16T02:20:54.465Z,24.66
2023-05-16T02:22:55.942Z,24.64
2023-05-16T02:24:57.384Z,24.64
2023-05-16T02:26:58.869Z,24.65
2023-05-16T02:29:00.512Z,24.59
2023-05-16T02:31:02.015Z,24.67
2023-05-16T02:33:03.641Z,24.66
2023-05-16T02:35:05.576Z,24.68
2023-05-16T02:37:07.002Z,24.68
2023-05-16T02:39:10.237Z,24.67
2023-05-16T02:41:11.794Z,24.68
2023-05-16T02:43:13.572Z,24.68
2023-05-16T02:45:15.041Z,24.67
2023-05-16T02:47:16.668Z,24.66
2023-05-16T02:49:18.092Z,24.65
2023-05-16T02:51:23.512Z,24.66
2023-05-16T02:53:25.014Z,24.65
2023-05-16T02:55:26.687Z,24.65
2023-05-16T02:57:28.195Z,24.67
2023-05-16T02:59:29.596Z,24.67
2023-05-16T03:01:31.526Z,24.67
2023-05-16T03:03:35.440Z,24.69
2023-05-16T03:05:37.430Z,24.68
2023-05-16T03:07:39.098Z,24.68
2023-05-16T03:09:40.499Z,24.67
2023-05-16T03:11:42.422Z,24.67
2023-05-16T03:13:43.997Z,24.67
2023-05-16T03:15:45.869Z,24.65
2023-05-16T03:17:47.374Z,24.65
2023-05-16T03:19:49.183Z,24.66
2023-05-16T03:21:50.744Z,24.65
2023-05-16T03:23:52.359Z,24.67
2023-05-16T03:25:54.110Z,24.67
2023-05-16T03:27:55.593Z,24.67
2023-05-16T03:29:57.088Z,24.68
2023-05-16T03:31:58.488Z,24.67
2023-05-16T03:33:59.995Z,24.66
2023-05-16T03:36:02.110Z,24.65
2023-05-16T03:38:03.775Z,24.64
2023-05-16T03:40:05.784Z,24.63
2023-05-16T03:42:07.630Z,24.64
2023-05-16T03:44:09.044Z,24.64
2023-05-16T03:46:10.584Z,24.65
2023-05-16T03:48:12.109Z,24.66
2023-05-16T03:50:13.662Z,24.66
2023-05-16T03:52:15.113Z,24.67
2023-05-16T03:54:16.564Z,24.66
2023-05-16T03:56:18.395Z,24.66
2023-05-16T03:58:19.871Z,24.64
2023-05-16T04:00:21.425Z,24.64
2023-05-16T04:02:23.017Z,24.64
2023-05-16T04:04:24.578Z,24.62
2023-05-16T04:06:26.253Z,24.62
2023-05-16T04:08:27.793Z,24.61
2023-05-16T04:10:29.454Z,24.62
2023-05-16T04:12:30.966Z,24.63
2023-05-16T04:14:32.507Z,24.63
2023-05-16T04:16:34.149Z,24.63
2023-05-16T04:18:35.852Z,24.64
2023-05-16T04:20:37.478Z,24.64
2023-05-16T04:22:38.918Z,24.64
2023-05-16T04:24:40.341Z,24.62
2023-05-16T04:26:41.839Z,24.62
2023-05-16T04:28:43.352Z,24.61
2023-05-16T04:30:44.817Z,24.61
2023-05-16T04:32:46.867Z,24.59
2023-05-16T04:34:50.056Z,24.62
2023-05-16T04:36:51.600Z,24.61
2023-05-16T04:38:53.020Z,24.62
2023-05-16T04:40:54.703Z,24.63
2023-05-16T04:42:56.654Z,24.63
2023-05-16T04:44:58.520Z,24.63
2023-05-16T04:46:59.901Z,24.63
2023-05-16T04:49:01.316Z,24.62
2023-05-16T04:51:02.723Z,24.61
2023-05-16T04:53:04.200Z,24.60
2023-05-16T04:55:06.074Z,24.59
2023-05-16T04:57:07.722Z,24.60
2023-05-16T04:59:09.375Z,24.58
2023-05-16T05:01:11.270Z,24.59
2023-05-16T05:03:12.912Z,24.58
2023-05-16T05:05:14.489Z,24.59
2023-05-16T05:07:16.042Z,24.58
2023-05-16T05:09:17.995Z,24.59
2023-05-16T05:11:19.483Z,24.59
2023-05-16T05:13:20.921Z,24.59
2023-05-16T05:15:22.381Z,24.58
2023-05-16T05:17:24.076Z,24.57
2023-05-16T05:19:25.833Z,24.57
2023-05-16T05:21:27.612Z,24.57
2023-05-16T05:23:30.127Z,24.57
2023-05-16T05:25:34.813Z,24.58
2023-05-16T05:27:37.660Z,24.58
2023-05-16T05:29:39.435Z,24.59
2023-05-16T05:31:41.293Z,24.61
2023-05-16T05:33:42.759Z,24.60
2023-05-16T05:35:44.229Z,24.61
2023-05-16T05:37:45.846Z,24.62
2023-05-16T05:39:47.336Z,24.60
2023-05-16T05:41:48.788Z,24.60
2023-05-16T05:43:50.190Z,24.58
2023-05-16T05:45:52.238Z,24.58
2023-05-16T05:47:53.794Z,24.58
2023-05-16T05:49:55.603Z,24.57
2023-05-16T05:51:57.416Z,24.57
2023-05-16T05:53:58.965Z,24.58
2023-05-16T05:56:00.681Z,24.58
2023-05-16T05:58:03.751Z,24.59
2023-05-16T06:00:07.356Z,24.59
2023-05-16T06:02:09.009Z,24.59
2023-05-16T06:04:11.082Z,24.58
2023-05-16T06:06:12.598Z,24.57
2023-05-16T06:08:13.987Z,24.56
2023-05-16T06:10:15.450Z,24.55
2023-05-16T06:12:17.046Z,24.55
2023-05-16T06:14:20.430Z,24.55
2023-05-16T06:16:28.012Z,24.55
2023-05-16T06:18:32.787Z,24.55
2023-05-16T06:20:34.509Z,24.55
2023-05-16T06:22:35.998Z,24.55
2023-05-16T06:24:37.395Z,24.54
2023-05-16T06:26:39.118Z,24.55
2023-05-16T06:28:40.717Z,24.55
2023-05-16T06:30:42.102Z,24.54
2023-05-16T06:32:43.606Z,24.52
2023-05-16T06:34:45.119Z,24.53
2023-05-16T06:36:46.558Z,24.51
2023-05-16T06:38:48.208Z,24.52
2023-05-16T06:40:49.634Z,24.50
2023-05-16T06:42:51.481Z,24.51
2023-05-16T06:44:52.951Z,24.50
2023-05-16T06:46:54.669Z,24.50
2023-05-16T06:48:56.337Z,24.51
2023-05-16T06:50:58.074Z,24.50
2023-05-16T06:52:59.636Z,24.48
2023-05-16T06:55:01.095Z,24.48
2023-05-16T06:57:03.955Z,24.47
2023-05-16T06:59:05.452Z,24.47
2023-05-16T07:01:07.123Z,24.47
2023-05-16T07:03:08.896Z,24.46
2023-05-16T07:05:10.666Z,24.47
2023-05-16T07:07:12.211Z,24.48
2023-05-16T07:09:13.854Z,24.48
2023-05-16T07:11:15.321Z,24.49
2023-05-16T07:13:16.852Z,24.49
2023-05-16T07:15:18.376Z,24.49
2023-05-16T07:17:19.807Z,24.48
2023-05-16T07:19:21.466Z,24.49
2023-05-16T07:21:23.101Z,24.49
2023-05-16T07:23:24.721Z,24.47
2023-05-16T07:25:26.684Z,24.48
2023-05-16T07:27:28.492Z,24.48
2023-05-16T07:29:30.647Z,24.48
2023-05-16T07:31:32.236Z,24.48
2023-05-16T07:33:33.903Z,24.49
2023-05-16T07:35:35.460Z,24.49
2023-05-16T07:37:37.024Z,24.51
2023-05-16T07:39:39.251Z,24.51
2023-05-16T07:41:41.082Z,24.52
2023-05-16T07:43:42.594Z,24.51
2023-05-16T07:45:44.315Z,24.52
2023-05-16T07:47:45.952Z,24.51
2023-05-16T07:49:47.516Z,24.50
2023-05-16T07:51:48.980Z,24.50
2023-05-16T07:53:51.298Z,24.50
2023-05-16T07:55:53.227Z,24.51
2023-05-16T07:57:54.981Z,24.51
2023-05-16T07:59:56.533Z,24.52
2023-05-16T08:01:58.126Z,24.53
2023-05-16T08:03:59.704Z,24.53
2023-05-16T08:06:01.273Z,24.52
2023-05-16T08:08:02.843Z,24.52
2023-05-16T08:10:04.751Z,24.53
2023-05-16T08:12:06.560Z,24.52
2023-05-16T08:14:08.040Z,24.52
2023-05-16T08:16:09.608Z,24.52
2023-05-16T08:18:22.072Z,24.52
2023-05-16T08:20:24.291Z,24.51
2023-05-16T08:22:25.909Z,24.53
2023-05-16T08:24:27.384Z,24.53
2023-05-16T08:26:28.979Z,24.55
2023-05-16T08:28:30.982Z,24.48
2023-05-16T08:30:32.513Z,24.56
2023-05-16T08:32:34.102Z,24.57
2023-05-16T08:34:35.641Z,24.57
2023-05-16T08:36:37.863Z,24.58
2023-05-16T08:38:39.381Z,24.57
2023-05-16T08:40:41.070Z,24.56
2023-05-16T08:42:43.467Z,24.56
2023-05-16T08:44:46.782Z,24.57
2023-05-16T08:46:51.407Z,24.58
2023-05-16T08:48:54.007Z,24.59
2023-05-16T08:50:55.542Z,24.58
2023-05-16T08:52:57.636Z,24.59
2023-05-16T08:55:10.915Z,24.59
2023-05-16T08:57:13.984Z,24.58
2023-05-16T08:59:16.014Z,24.59
2023-05-16T09:01:18.527Z,24.58
2023-05-16T09:03:21.397Z,24.57
2023-05-16T09:05:23.136Z,24.57
2023-05-16T09:07:25.032Z,24.57
2023-05-16T09:09:26.762Z,24.58
2023-05-16T09:11:28.709Z,24.60
2023-05-16T09:13:30.197Z,24.59
2023-05-16T09:15:32.865Z,24.61
2023-05-16T09:17:42.891Z,24.62
2023-05-16T09:19:44.973Z,24.61
2023-05-16T09:21:46.653Z,24.63
2023-05-16T09:23:51.568Z,24.63
2023-05-16T09:25:53.493Z,24.63
2023-05-16T09:27:55.854Z,24.63
2023-05-16T09:29:58.060Z,24.62
2023-05-16T09:32:05.130Z,24.64
2023-05-16T09:34:11.228Z,24.63
2023-05-16T09:36:14.117Z,24.63
2023-05-16T09:38:16.695Z,24.64
2023-05-16T09:40:20.765Z,24.66
2023-05-16T09:42:22.769Z,24.67
2023-05-16T09:44:24.673Z,24.68
2023-05-16T09:46:27.547Z,24.67
2023-05-16T09:48:29.523Z,24.68
2023-05-16T09:50:35.385Z,24.67
2023-05-16T09:52:38.176Z,24.66
2023-05-16T09:54:39.939Z,24.66
2023-05-16T09:56:51.539Z,24.66
2023-05-16T09:58:53.094Z,24.66
2023-05-16T10:00:56.177Z,24.67
2023-05-16T10:02:58.741Z,24.66
2023-05-16T10:05:01.211Z,24.67
2023-05-16T10:07:04.393Z,24.67
2023-05-16T10:09:05.833Z,24.69
2023-05-16T10:11:07.370Z,24.61
2023-05-16T10:13:10.467Z,24.69
2023-05-16T10:15:11.992Z,24.68
2023-05-16T10:17:15.759Z,24.67
2023-05-16T10:19:20.716Z,24.68
2023-05-16T10:21:23.100Z,24.67
2023-05-16T10:23:26.301Z,24.67
2023-05-16T10:25:36.012Z,24.68
2023-05-16T10:27:37.585Z,24.69
2023-05-16T10:29:50.396Z,24.70
2023-05-16T10:31:56.150Z,24.72
2023-05-16T10:33:57.928Z,24.72
2023-05-16T10:35:59.366Z,24.72
2023-05-16T10:38:01.483Z,24.72
2023-05-16T10:40:05.942Z,24.72
2023-05-16T10:42:08.136Z,24.73
2023-05-16T10:44:18.550Z,24.72
2023-05-16T10:46:22.914Z,24.73
2023-05-16T10:48:31.422Z,24.73
2023-05-16T10:50:43.646Z,24.73
2023-05-16T10:52:45.286Z,24.74
2023-05-16T10:54:53.741Z,24.75
2023-05-16T10:56:56.816Z,24.74
2023-05-16T10:58:58.431Z,24.75
2023-05-16T11:01:18.579Z,24.77
2023-05-16T11:03:25.422Z,24.78
2023-05-16T11:05:27.616Z,24.79
2023-05-16T11:07:31.251Z,24.79
2023-05-16T11:09:33.086Z,24.78
2023-05-16T11:11:41.942Z,24.77
2023-05-16T11:13:55.736Z,24.77
2023-05-16T11:16:16.164Z,24.78
2023-05-16T11:18:18.807Z,24.79
2023-05-16T11:20:27.619Z,24.80
2023-05-16T11:22:29.921Z,24.82
2023-05-16T11:24:31.671Z,24.82
2023-05-16T11:26:33.439Z,24.82
2023-05-16T11:28:35.030Z,24.83
2023-05-16T11:30:37.217Z,24.82
2023-05-16T11:32:39.459Z,24.82
2023-05-16T11:34:41.978Z,24.81
2023-05-16T11:36:44.740Z,24.82
2023-05-16T11:38:46.451Z,24.82
2023-05-16T11:40:47.933Z,24.82
2023-05-16T11:42:49.835Z,24.82
2023-05-16T11:45:03.295Z,24.84
2023-05-16T11:47:05.526Z,24.84
2023-05-16T11:49:09.518Z,24.85
2023-05-16T11:51:11.272Z,24.84
2023-05-16T11:53:14.214Z,24.84
2023-05-16T11:55:25.070Z,24.85
2023-05-16T11:57:34.647Z,24.84
2023-05-16T11:59:37.074Z,24.84
2023-05-16T12:01:39.869Z,24.84
2023-05-16T12:03:41.821Z,24.83
2023-05-16T12:05:50.036Z,24.84
2023-05-16T12:07:54.303Z,24.85
2023-05-16T12:09:55.983Z,24.86
2023-05-16T12:12:00.603Z,24.86
2023-05-16T12:14:02.456Z,24.87
2023-05-16T12:16:04.205Z,24.87
2023-05-16T12:18:05.959Z,24.89
2023-05-16T12:20:12.672Z,24.93
2023-05-16T12:22:18.371Z,24.95
2023-05-16T12:24:19.905Z,24.99
2023-05-16T12:26:25.662Z,25.03
2023-05-16T12:28:36.687Z,25.08
2023-05-16T12:30:41.512Z,25.14
2023-05-16T12:32:43.054Z,25.20
2023-05-16T12:34:52.428Z,25.23
2023-05-16T12:36:54.579Z,25.27
2023-05-16T12:38:56.436Z,25.32
2023-05-16T12:40:58.614Z,25.36
2023-05-16T12:43:00.048Z,25.39
2023-05-16T12:45:01.542Z,25.43
2023-05-16T12:47:03.332Z,25.46
2023-05-16T12:49:08.289Z,25.48
2023-05-16T12:51:16.262Z,25.50
2023-05-16T12:53:18.898Z,25.41
2023-05-16T12:55:21.180Z,25.35
2023-05-16T12:57:22.661Z,25.22
2023-05-16T12:59:24.162Z,25.10
2023-05-16T13:01:25.777Z,25.03
2023-05-16T13:03:27.683Z,24.97
2023-05-16T13:05:29.851Z,24.90
2023-05-16T13:07:31.321Z,24.86
2023-05-16T13:09:33.263Z,24.76
2023-05-16T13:11:34.788Z,24.71
2023-05-16T13:13:37.467Z,24.63
2023-05-16T13:15:39.048Z,24.61
2023-05-16T13:17:41.777Z,24.56
2023-05-16T13:19:43.318Z,24.49
2023-05-16T13:21:44.888Z,24.35
2023-05-16T13:23:46.411Z,24.32
2023-05-16T13:25:49.543Z,24.27
2023-05-16T13:27:51.252Z,24.24
2023-05-16T13:29:52.795Z,24.19
2023-05-16T13:31:54.283Z,23.97
2023-05-16T13:33:55.789Z,23.92
2023-05-16T13:35:57.614Z,23.89
2023-05-16T13:37:59.101Z,23.75
2023-05-16T13:40:00.767Z,23.73
2023-05-16T13:42:03.215Z,23.68
2023-05-16T13:44:04.845Z,23.67
2023-05-16T13:46:06.444Z,23.66
2023-05-16T13:48:08.206Z,23.70
2023-05-16T13:50:10.476Z,23.69
2023-05-16T13:52:12.180Z,23.65
2023-05-16T13:54:13.702Z,23.61
2023-05-16T13:56:15.423Z,23.55
2023-05-16T13:58:17.106Z,23.51
2023-05-16T14:00:35.866Z,23.47
2023-05-16T14:02:41.412Z,23.39
2023-05-16T14:04:42.902Z,23.33
2023-05-16T14:06:44.406Z,23.29
2023-05-16T14:08:46.115Z,23.26
2023-05-16T14:10:47.822Z,23.22
2023-05-16T14:12:49.334Z,23.04
2023-05-16T14:14:50.836Z,23.01
2023-05-16T14:16:52.802Z,23.06
2023-05-16T14:18:54.452Z,22.98
2023-05-16T14:20:56.630Z,22.89
2023-05-16T14:22:58.160Z,22.89
2023-05-16T14:25:00.306Z,22.82
2023-05-16T14:27:02.985Z,22.78
2023-05-16T14:29:04.558Z,22.75
2023-05-16T14:31:06.803Z,22.71
2023-05-16T14:33:08.423Z,22.71
2023-05-16T14:35:10.583Z,22.72
2023-05-16T14:37:13.125Z,22.73
2023-05-16T14:39:14.699Z,22.72
2023-05-16T14:41:16.548Z,22.74
2023-05-16T14:43:18.615Z,22.73
2023-05-16T14:45:20.149Z,22.73
2023-05-16T14:47:21.697Z,22.68
2023-05-16T14:49:23.128Z,22.70
2023-05-16T14:51:24.784Z,22.73
2023-05-16T14:53:26.863Z,22.76
2023-05-16T14:55:28.739Z,22.79
2023-05-16T14:57:30.800Z,22.86
2023-05-16T14:59:32.345Z,22.96
2023-05-16T15:01:33.905Z,23.05
2023-05-16T15:03:53.733Z,23.15
2023-05-16T15:05:55.864Z,23.23
2023-05-16T15:07:57.634Z,23.29
2023-05-16T15:09:59.078Z,23.34
2023-05-16T15:12:01.916Z,23.39
2023-05-16T15:14:03.566Z,23.43
2023-05-16T15:16:05.327Z,23.47
2023-05-16T15:18:07.174Z,23.51
2023-05-16T15:20:09.532Z,23.54
2023-05-16T15:22:11.149Z,23.58
2023-05-16T15:24:13.094Z,23.64
2023-05-16T15:26:14.588Z,23.67
2023-05-16T15:28:16.680Z,23.71
2023-05-16T15:30:18.255Z,23.75
2023-05-16T15:32:19.845Z,23.80
2023-05-16T15:34:21.362Z,23.83
2023-05-16T15:36:23.216Z,23.84
2023-05-16T15:38:24.761Z,23.84
2023-05-16T15:40:27.382Z,23.87
2023-05-16T15:42:29.273Z,23.89
2023-05-16T15:44:30.808Z,23.92
2023-05-16T15:46:33.427Z,23.96
2023-05-16T15:48:35.133Z,23.98
2023-05-16T15:50:37.343Z,24.01
2023-05-16T15:52:39.881Z,23.94
2023-05-16T15:54:41.480Z,24.05
2023-05-16T15:56:42.955Z,24.08
2023-05-16T15:58:46.712Z,24.12
2023-05-16T16:00:48.372Z,24.15
2023-05-16T16:02:50.018Z,24.17
2023-05-16T16:04:51.877Z,24.19
2023-05-16T16:06:53.351Z,24.21
2023-05-16T16:08:54.834Z,24.21
2023-05-16T16:10:56.272Z,24.23
2023-05-16T16:12:58.539Z,24.24
2023-05-16T16:15:00.142Z,24.27
2023-05-16T16:17:01.617Z,24.29
2023-05-16T16:19:03.264Z,24.32
2023-05-16T16:21:04.985Z,24.33
2023-05-16T16:23:06.715Z,24.35
2023-05-16T16:25:08.347Z,24.37
2023-05-16T16:27:09.915Z,24.39
2023-05-16T16:29:11.404Z,24.40
2023-05-16T16:31:13.201Z,24.40
2023-05-16T16:33:14.822Z,24.42
2023-05-16T16:35:16.428Z,24.44
2023-05-16T16:37:17.856Z,24.46
2023-05-16T16:39:19.840Z,24.46
2023-05-16T16:41:21.626Z,24.49
2023-05-16T16:43:23.080Z,24.51
2023-05-16T16:45:24.847Z,24.52
2023-05-16T16:47:26.451Z,24.54
2023-05-16T16:49:28.126Z,24.55
2023-05-16T16:51:32.812Z,24.56
2023-05-16T16:53:35.269Z,24.56
2023-05-16T16:55:40.003Z,24.57
2023-05-16T16:57:42.603Z,24.58
2023-05-16T16:59:46.562Z,24.58
2023-05-16T17:01:48.156Z,24.59
2023-05-16T17:03:49.820Z,24.61
2023-05-16T17:05:53.120Z,24.64
2023-05-16T17:07:54.614Z,24.65
2023-05-16T17:09:56.539Z,24.67
2023-05-16T17:11:58.079Z,24.67
2023-05-16T17:13:59.847Z,24.70
2023-05-16T17:16:01.560Z,24.70
2023-05-16T17:18:05.111Z,24.71
2023-05-16T17:20:07.557Z,24.70
2023-05-16T17:22:09.232Z,24.70
2023-05-16T17:24:10.793Z,24.71
2023-05-16T17:26:13.477Z,24.71
2023-05-16T17:28:15.083Z,24.73
2023-05-16T17:30:18.702Z,24.72
2023-05-16T17:32:21.388Z,24.75
2023-05-16T17:34:23.352Z,24.79
2023-05-16T17:36:24.818Z,24.79
2023-05-16T17:38:26.735Z,24.80
2023-05-16T17:40:28.376Z,24.81
2023-05-16T17:42:30.131Z,24.82
2023-05-16T17:44:31.919Z,24.83
2023-05-16T17:46:33.904Z,24.82
2023-05-16T17:48:35.416Z,24.83
2023-05-16T17:50:37.367Z,24.85
2023-05-16T17:52:40.114Z,24.86
2023-05-16T17:54:41.693Z,24.87
2023-05-16T17:56:43.762Z,24.90
2023-05-16T17:58:45.969Z,24.93
2023-05-16T18:00:48.557Z,24.95
2023-05-16T18:02:50.590Z,24.97
2023-05-16T18:04:52.822Z,24.99
2023-05-16T18:06:54.528Z,25.02
2023-05-16T18:08:56.219Z,24.93
2023-05-16T18:10:57.979Z,24.85
2023-05-16T18:13:00.142Z,24.73
2023-05-16T18:15:01.739Z,24.66
2023-05-16T18:17:03.776Z,24.63
2023-05-16T18:19:05.558Z,24.57
2023-05-16T18:21:07.424Z,24.53
2023-05-16T18:23:09.326Z,24.53
2023-05-16T18:25:11.438Z,24.57
2023-05-16T18:27:13.179Z,24.60
2023-05-16T18:29:14.914Z,24.59
2023-05-16T18:31:16.482Z,24.55
2023-05-16T18:33:18.145Z,24.54
2023-05-16T18:35:19.725Z,24.52
2023-05-16T18:37:21.350Z,24.52
2023-05-16T18:39:22.894Z,24.50
2023-05-16T18:41:24.401Z,24.47
2023-05-16T18:43:26.282Z,24.46
2023-05-16T18:45:29.872Z,24.45
2023-05-16T18:47:31.767Z,24.45
2023-05-16T18:49:38.803Z,24.30
2023-05-16T18:51:40.744Z,24.45
2023-05-16T18:53:42.262Z,24.45
2023-05-16T18:55:43.823Z,24.45
2023-05-16T18:57:45.652Z,24.42
2023-05-16T18:59:47.155Z,24.38
2023-05-16T19:01:48.688Z,24.34
2023-05-16T19:03:50.383Z,24.35
2023-05-16T19:05:52.017Z,24.33
2023-05-16T19:07:53.528Z,24.33
2023-05-16T19:09:54.982Z,24.32
2023-05-16T19:11:56.668Z,24.31
2023-05-16T19:13:58.185Z,24.31
2023-05-16T19:15:59.891Z,24.34
2023-05-16T19:18:01.594Z,24.33
2023-05-16T19:20:03.389Z,24.32
2023-05-16T19:22:05.020Z,24.32
2023-05-16T19:24:06.691Z,24.32
2023-05-16T19:26:08.370Z,24.32
2023-05-16T19:28:10.397Z,24.36
2023-05-16T19:30:12.098Z,24.36
2023-05-16T19:32:13.853Z,24.36
2023-05-16T19:34:15.406Z,24.39
2023-05-16T19:36:17.753Z,24.39
2023-05-16T19:38:24.374Z,24.40
2023-05-16T19:40:25.866Z,24.41
2023-05-16T19:42:27.350Z,24.44
2023-05-16T19:44:28.886Z,24.45
2023-05-16T19:46:30.397Z,24.46
2023-05-16T19:48:32.134Z,24.48
2023-05-16T19:50:33.734Z,24.47
2023-05-16T19:52:36.302Z,24.46
2023-05-16T19:54:37.853Z,24.44
2023-05-16T19:56:39.412Z,24.44
2023-05-16T19:58:43.685Z,24.44
2023-05-16T20:00:45.241Z,24.44
2023-05-16T20:02:47.365Z,24.45
2023-05-16T20:04:49.037Z,24.44
2023-05-16T20:06:51.857Z,24.47
2023-05-16T20:08:53.337Z,24.48
2023-05-16T20:10:55.810Z,24.46
2023-05-16T20:12:57.456Z,24.45
2023-05-16T20:14:59.037Z,24.42
2023-05-16T20:17:03.811Z,24.42
2023-05-16T20:19:05.930Z,24.42
2023-05-16T20:21:07.447Z,24.44
2023-05-16T20:23:08.945Z,24.44
2023-05-16T20:25:11.346Z,24.44
2023-05-16T20:27:13.035Z,24.45
2023-05-16T20:29:14.756Z,24.47
2023-05-16T20:31:16.273Z,24.48
2023-05-16T20:33:17.946Z,24.50
2023-05-16T20:35:19.649Z,24.50
2023-05-16T20:37:26.459Z,24.47
2023-05-16T20:39:28.986Z,24.47
2023-05-16T20:41:30.939Z,24.47
2023-05-16T20:43:32.529Z,24.46
2023-05-16T20:45:34.257Z,24.44
2023-05-16T20:47:35.915Z,24.44
2023-05-16T20:49:39.395Z,24.46
2023-05-16T20:51:41.109Z,24.47
2023-05-16T20:53:42.625Z,24.47
2023-05-16T20:55:44.358Z,24.46
2023-05-16T20:57:46.014Z,24.47
2023-05-16T20:59:47.605Z,24.38
2023-05-16T21:01:50.298Z,24.49
2023-05-16T21:03:51.860Z,24.50
2023-05-16T21:05:53.502Z,24.50
2023-05-16T21:07:55.529Z,24.50
2023-05-16T21:09:57.124Z,24.51
2023-05-16T21:11:58.731Z,24.51
2023-05-16T21:14:00.620Z,24.52
2023-05-16T21:16:02.060Z,24.56
2023-05-16T21:18:03.780Z,24.58
2023-05-16T21:20:06.036Z,24.57
2023-05-16T21:22:07.517Z,24.54
2023-05-16T21:24:09.042Z,24.54
2023-05-16T21:26:11.173Z,24.55
2023-05-16T21:28:12.716Z,24.54
2023-05-16T21:30:14.348Z,24.51
2023-05-16T21:32:16.308Z,24.47
2023-05-16T21:34:17.911Z,24.57
2023-05-16T21:36:19.979Z,24.68
2023-05-16T21:38:21.606Z,24.69
2023-05-16T21:40:25.671Z,24.70
2023-05-16T21:42:27.273Z,24.66
2023-05-16T21:44:28.856Z,24.66
2023-05-16T21:46:30.307Z,24.69
2023-05-16T21:48:31.852Z,24.71
2023-05-16T21:50:33.983Z,24.73
2023-05-16T21:52:35.440Z,24.73
2023-05-16T21:54:36.913Z,24.73
2023-05-16T21:56:38.626Z,24.73
2023-05-16T21:58:42.310Z,24.72
2023-05-16T22:00:43.881Z,24.72
2023-05-16T22:02:45.529Z,24.71
2023-05-16T22:04:47.211Z,24.73
2023-05-16T22:06:48.679Z,24.73
2023-05-16T22:08:50.817Z,24.72
2023-05-16T22:10:52.840Z,24.73
2023-05-16T22:12:54.356Z,24.72
2023-05-16T22:14:55.950Z,24.73
2023-05-16T22:16:57.687Z,24.71
2023-05-16T22:18:59.284Z,24.71
2023-05-16T22:21:01.196Z,24.70
2023-05-16T22:23:03.142Z,24.70
2023-05-16T22:25:05.161Z,24.70
2023-05-16T22:27:06.790Z,24.70
2023-05-16T22:29:08.311Z,24.70
2023-05-16T22:31:09.769Z,24.71
2023-05-16T22:33:11.454Z,24.72
2023-05-16T22:35:13.796Z,24.72
2023-05-16T22:37:15.364Z,24.72
2023-05-16T22:39:16.863Z,24.72
2023-05-16T22:41:18.356Z,24.74
2023-05-16T22:43:20.263Z,24.73
2023-05-16T22:45:21.909Z,24.72
2023-05-16T22:47:23.359Z,24.72
2023-05-16T22:49:24.964Z,24.73
2023-05-16T22:51:26.401Z,24.72
2023-05-16T22:53:28.200Z,24.73
2023-05-16T22:55:29.891Z,24.74
2023-05-16T22:57:31.587Z,24.74
2023-05-16T22:59:33.248Z,24.75
2023-05-16T23:01:35.332Z,24.75
2023-05-16T23:03:36.902Z,24.76
2023-05-16T23:05:38.422Z,24.76
2023-05-16T23:07:39.982Z,24.76
2023-05-16T23:09:41.495Z,24.76
2023-05-16T23:11:42.920Z,24.76
2023-05-16T23:13:44.376Z,24.76
2023-05-16T23:15:45.781Z,24.77
2023-05-16T23:17:47.391Z,24.76
2023-05-16T23:19:49.021Z,24.78
2023-05-16T23:21:50.705Z,24.80
2023-05-16T23:23:52.250Z,24.79
2023-05-16T23:25:53.696Z,24.80
2023-05-16T23:27:57.628Z,24.81
2023-05-16T23:29:59.290Z,24.81
2023-05-16T23:32:00.951Z,24.81
2023-05-16T23:34:02.612Z,24.81
2023-05-16T23:36:04.279Z,24.80
2023-05-16T23:38:05.776Z,24.81
2023-05-16T23:40:07.628Z,24.81
2023-05-16T23:42:09.186Z,24.81
2023-05-16T23:44:10.819Z,24.82
2023-05-16T23:46:12.310Z,24.82
2023-05-16T23:48:13.931Z,24.83
2023-05-16T23:50:17.348Z,24.84
2023-05-16T23:52:19.374Z,24.84
2023-05-16T23:54:20.936Z,24.84
2023-05-16T23:56:22.452Z,24.84
2023-05-16T23:58:23.952Z,24.83
